Existem vários avisos   Clique para obter mais informações

Nearby METAR Reports

 

LEZL - Sevilla, Spain
Distance from station: ENE 8km
Actualizado: 23/09/2021 04:30
Céu limpo
Céu limpo
 Vento de NE
Vento: NE 7 km/h
Temperatura: 20°C
Ponto de Orvalho: 16°C
Humidade: 78%
Barómetro: 1012 hPa
Resumo: Céu limpo
Visibility: greater than 10 km
2021/09/23 02:30 LEZL 230230Z AUTO 05004KT CAVOK 20/16 Q1012
LEMO - Morón, Spain
Distance from station: SE 43km
Actualizado: 23/09/2021 04:30
Céu limpo
Céu limpo
 Vento de ENE
Vento: ENE 6 km/h
Temperatura: 18°C
Ponto de Orvalho: 16°C
Humidade: 88%
Barómetro: 1012 hPa
Resumo: Céu limpo
Visibility: greater than 10 km
2021/09/23 02:30 LEMO 230230Z 06003KT CAVOK 18/16 Q1012 NOSIG
LEJR - Jeréz, Spain
Distance from station: S 71km
Actualizado: 23/09/2021 04:30
Few Clouds
Few Clouds
 Vento de varies
Vento: varies 4 km/h
Temperatura: 19°C
Ponto de Orvalho: 17°C
Humidade: 88%
Barómetro: 1012 hPa
Clouds: Few Clouds
Visibility: 10 km
Cloud details: Few Clouds 2042 m
2021/09/23 02:30 LEJR 230230Z AUTO VRB02KT 9999 FEW067 19/17 Q1012
 
LERT - Rota, Spain
Distance from station: SSW 89km
Actualizado: 23/09/2021 04:30
Muito nublado
Muito nublado
 Vento de ESE
Vento: ESE 13 km/h
Temperatura: 22°C
Ponto de Orvalho: 18°C
Humidade: 78%
Barómetro: 1011 hPa
Clouds: Muito nublado
Visibility: 9 km
Cloud details: Muito nublado 914 m
2021/09/23 02:30 LERT 230230Z 11007KT 060V130 9000 BKN030 22/18 Q1011 NOSIG
LEMG - Málaga, Spain
Distance from station: ESE 157km
Actualizado: 23/09/2021 04:30
Encoberto
Encoberto
 Vento de SE
Vento: SE 11 km/h
Temperatura: 22°C
Ponto de Orvalho: 21°C
Humidade: 94%
Barómetro: 1014 hPa
Clouds: Encoberto
Visibility: 10 km
Cloud details: Muito nublado 366 m
Encoberto 457 m
2021/09/23 02:30 LEMG 230230Z 13006KT 100V160 9999 BKN012 OVC015 22/21 Q1014 NOSIG
LEBA - Córdoba, Spain
Distance from station: ENE 115km
Actualizado: 23/09/2021 04:30
Céu limpo
Céu limpo
 Vento de E
Vento: E 6 km/h
Temperatura: 18°C
Ponto de Orvalho: 15°C
Humidade: 83%
Barómetro: 1013 hPa
Resumo: Céu limpo
Visibility: greater than 10 km
2021/09/23 02:30 LEBA 230230Z AUTO 09003KT CAVOK 18/15 Q1013
 
LEGR - Granada, Spain
Distance from station: E 198km
Actualizado: 23/09/2021 04:30
Nearby thunderstorm, Trovoada
Nearby thunderstorm, Trovoada
 Vento de calm
Vento: Calmo
Temperatura: 15°C
Ponto de Orvalho: 14°C
Humidade: 94%
Barómetro: 1016 hPa
Resumo: Nearby Thunderstorm
Clouds: Trovoada
Visibility: 10 km
2021/09/23 02:30 LEGR 230230Z AUTO 00000KT 9999 VCTS ///CB 15/14 Q1016
LEAM - Almería, Spain
Distance from station: E 326km
Actualizado: 23/09/2021 04:30
Parcialmente nublado
Parcialmente nublado
 Vento de N
Vento: N 9 km/h
Temperatura: 22°C
Ponto de Orvalho: 17°C
Humidade: 73%
Barómetro: 1014 hPa
Clouds: Parcialmente nublado
Visibility: 10 km
Cloud details: Parcialmente nublado 1006 m
2021/09/23 02:30 LEAM 230230Z AUTO 36005KT 320V030 9999 SCT033 22/17 Q1014
LEMD - Madrid/Barajas, Spain
Distance from station: NNE 402km
Actualizado: 23/09/2021 04:30
Parcialmente nublado
Parcialmente nublado
 Vento de NNW
Vento: NNW 7 km/h
Temperatura: 15°C
Ponto de Orvalho: 13°C
Humidade: 88%
Barómetro: 1019 hPa
Clouds: Parcialmente nublado
Visibility: 10 km
Cloud details: Parcialmente nublado 1372 m
Parcialmente nublado 1524 m
2021/09/23 02:30 LEMD 230230Z 33004KT 9999 SCT045 SCT050 15/13 Q1019 NOSIG
 
LEVD - Valladolid, Spain
Distance from station: N 492km
Actualizado: 23/09/2021 04:30
Céu limpo
Céu limpo
 Vento de ENE
Vento: ENE 17 km/h
Temperatura: 12°C
Ponto de Orvalho: 9°C
Humidade: 82%
Barómetro: 1020 hPa
Resumo: Céu limpo
Visibility: greater than 10 km
2021/09/23 02:30 LEVD 230230Z AUTO 07009KT CAVOK 12/09 Q1020
LEBL - Barcelona, Spain
Distance from station: NE 816km
Actualizado: 23/09/2021 04:30
Few Clouds
Few Clouds
 Vento de NNW
Vento: NNW 15 km/h
Temperatura: 19°C
Ponto de Orvalho: 12°C
Humidade: 64%
Barómetro: 1018 hPa
Clouds: Few Clouds
Visibility: 10 km
Cloud details: Few Clouds 1219 m
2021/09/23 02:30 LEBL 230230Z 33008KT 9999 FEW040 19/12 Q1018 NOSIG
LEVC - Valencia, Spain
Distance from station: ENE 535km
Actualizado: 23/09/2021 04:30
Chuva fraca, Few clouds
Chuva fraca, Few clouds
 Vento de S
Vento: S 13 km/h
Temperatura: 20°C
Ponto de Orvalho: 18°C
Humidade: 88%
Barómetro: 1017 hPa
Resumo: Chuva fraca
Clouds: Few Clouds
Visibility: 10 km
Cloud details: Muito nublado 610 m
Few Clouds 762 m
2021/09/23 02:30 LEVC 230230Z 17007KT 140V230 9999 -RA BKN020 FEW025CB 20/18 Q1017 TEMPO 4000 TSRA